UUEEURMM

Guest
Details From UUEE - Moscou Sheremetyevo
To URMM - Mineralnyye Vody
Flight Number -
Tags Generated
Created
Modified
Stats Distance 738 nm / 1,367 km
Max Altitude 0 ft / 0 m
Waypoints 4
Social Downloads 6
Likes 0
Share VATSIM

Download

Looking for another format? Having issues loading an existing format? Contact us
Advertisement - Login to hide

Notes

Generated

Route

UUEE USMAN MD URMM

ID Type Via Altitude Latitude Longitude Leg Dist Tot Dist Heading (true) Name
O UUEE APT - 0 ft / 0 m 55.96979˚ 37.38673˚ - 0 nm - -
USMAN FIX - 0 ft / 0 m 52.03333˚ 39.73333˚ 250 nm 250 nm 160° / 162° -
MD NDB - 0 ft / 0 m 44.25833˚ 43.00833˚ 484 nm 735 nm 163° / 166° MINERALNYYE VODY NDB
O URMM APT - 0 ft / 0 m 44.23442˚ 43.06126˚ 2 nm 738 nm 122° / 122° -

Altitude Profile

Advertisement - Login to hide

Weather


0- 5 10 15 20 25 30 35+ Temperature / ° C

Clouds and Precipitation
Forecast for 2017-12-14 18:00 UTC. Updated 14 minutes ago

Ground ~20,000 ft ~40,000 ft Winds

UUEE

Details ICAO UUEE (SVO)
Name Moscou Sheremetyevo
Region Russia
Timezone Europe/Moscow (UTC+3.0)
Stats Elevation 622 ft / 190 m (AMSL)
Location 55.972642° 37.414586°
Runways 2
Magnetic Variation 11.166° E

METAR

UUEE 141530Z 09004MPS 3200 -SN OVC003 00/00 Q1006 R06R/510245 R06L/550230 NOSIG

Decode

TAF

TAF UUEE 141359Z 1415/1515 09004MPS 3000 -SN BR OVC004 TX01/1512Z TN00/1415Z TEMPO 1415/1419 1200 SHSN BR BKN002 BKN010CB BECMG 1419/1421 20005MPS 6000 NSW TEMPO 1419/1507 1000 -SN BR OVC001

Decode

Departure Runways

ID Width Length Bearing (true) Bearing (mag) Surface Threshold Offset Overrun Length
07L 197 ft / 60 m 11,613 ft / 3,540 m 74.99° 63.82° Concrete 0 ft / 0 m 240 ft / 73 m
07R 197 ft / 60 m 12,127 ft / 3,696 m 75.03° 63.86° Concrete 0 ft / 0 m 235 ft / 72 m
25L 197 ft / 60 m 12,127 ft / 3,696 m 255.08° 243.91° Concrete 0 ft / 0 m 245 ft / 75 m
25R 197 ft / 60 m 11,613 ft / 3,540 m 255.04° 243.87° Concrete 0 ft / 0 m 245 ft / 75 m

URMM

Details ICAO URMM (MRV)
Name MINERALNYYE VODY
Region Russia
Timezone Europe/Moscow (UTC+3.0)
Stats Elevation 1,054 ft / 321 m (AMSL)
Location 44.225073° 43.081891°
Runways 1
Magnetic Variation 7.387° E

METAR

URMM 141530Z 12006MPS 6000 -DZ OVC004 02/01 Q1017 R12/090070 NOSIG RMK MT OBSC QFE734/0979

Decode

TAF

TAF URMM 141358Z 1415/1515 11003G08MPS 3100 BR OVC004 TX04/1512Z TN00/1503Z TEMPO 1416/1509 0300 -DZ FG OVC002

Decode

Destination Runways

ID Width Length Bearing (true) Bearing (mag) Surface Threshold Offset Overrun Length
12 197 ft / 60 m 12,766 ft / 3,891 m 122.28° 114.89° Concrete 0 ft / 0 m 240 ft / 73 m
30 197 ft / 60 m 12,766 ft / 3,891 m 302.31° 294.92° Concrete 0 ft / 0 m 250 ft / 76 m

Popular Alternatives